Time;durP1;ratioP1;P1;durP2;ratioP2;P2;SDS_P1;SDS_P2;PMS_P1;PMS_P2;Temp;Humidity;BMP_temperature;BMP_pressure;BME280_temperature;BME280_humidity;BME280_pressure;Samples;Min_cycle;Max_cycle;Signal;HPM_P1;HPM_P2
2022/04/02 00:00:53;;;;;;;15.83;10.93;;;1.80;99.90;;;;;;5076053;28;20451;-63
2022/04/02 00:03:19;;;;;;;14.40;10.07;;;1.70;99.90;;;;;;5076250;28;20904;-63
2022/04/02 00:05:45;;;;;;;13.57;8.97;;;1.80;99.90;;;;;;5076002;28;20427;-64
2022/04/02 00:08:11;;;;;;;13.37;8.73;;;1.80;99.90;;;;;;5075159;28;20443;-64
2022/04/02 00:10:37;;;;;;;16.67;10.70;;;1.80;99.90;;;;;;5075921;28;20440;-63
2022/04/02 00:13:03;;;;;;;13.20;8.27;;;1.90;99.90;;;;;;5075998;28;20182;-63
2022/04/02 00:15:29;;;;;;;15.10;10.60;;;1.90;99.90;;;;;;5075996;28;20471;-63
2022/04/02 00:17:55;;;;;;;13.93;9.70;;;1.90;99.90;;;;;;5075800;28;20420;-64
2022/04/02 00:20:21;;;;;;;11.43;8.73;;;1.90;99.90;;;;;;5075844;28;20554;-63
2022/04/02 00:25:31;;;;;;;12.50;9.20;;;1.90;99.90;;;;;;5094295;28;20497;-63
2022/04/02 00:27:57;;;;;;;15.00;9.70;;;1.90;99.90;;;;;;5075483;28;20453;-64
2022/04/02 00:30:23;;;;;;;14.07;11.10;;;1.90;99.90;;;;;;5075619;28;20457;-64
2022/04/02 00:32:49;;;;;;;12.50;10.00;;;1.90;99.90;;;;;;5075814;28;20232;-64
2022/04/02 00:35:15;;;;;;;15.43;9.60;;;1.80;99.90;;;;;;5075542;28;20468;-63
2022/04/02 00:37:41;;;;;;;12.37;9.80;;;1.80;99.90;;;;;;5075392;28;20245;-63
2022/04/02 00:40:07;;;;;;;13.00;8.53;;;1.80;99.90;;;;;;5075430;28;20668;-64
2022/04/02 00:42:33;;;;;;;13.13;9.40;;;1.80;99.90;;;;;;5075593;28;20505;-64
2022/04/02 00:44:59;;;;;;;11.30;8.17;;;1.80;99.90;;;;;;5075369;28;20512;-63
2022/04/02 00:47:25;;;;;;;14.43;9.03;;;1.80;99.90;;;;;;5075383;28;20182;-63
2022/04/02 00:49:53;;;;;;;14.90;9.50;;;1.80;99.90;;;;;;5075316;28;20773;-63
2022/04/02 00:52:20;;;;;;;11.23;8.40;;;1.90;99.90;;;;;;5075272;28;20325;-64
2022/04/02 00:54:48;;;;;;;11.97;7.90;;;1.80;99.90;;;;;;5074846;28;20463;-64
2022/04/02 00:57:14;;;;;;;11.13;7.10;;;1.80;99.90;;;;;;5074764;28;20478;-63
2022/04/02 00:59:40;;;;;;;7.87;5.77;;;1.90;99.90;;;;;;5075055;28;20416;-63
2022/04/02 01:02:05;;;;;;;12.77;6.87;;;1.90;99.90;;;;;;5075178;28;20234;-63
2022/04/02 01:04:31;;;;;;;9.40;6.80;;;1.90;99.90;;;;;;5074969;28;20182;-63
2022/04/02 01:06:59;;;;;;;13.10;6.97;;;1.80;99.90;;;;;;5074840;28;20231;-63
2022/04/02 01:09:25;;;;;;;9.73;6.13;;;1.80;99.90;;;;;;5074995;28;20183;-64
2022/04/02 01:11:52;;;;;;;7.40;5.50;;;1.80;99.90;;;;;;5074736;28;20790;-63
2022/04/02 01:14:18;;;;;;;8.57;5.30;;;1.80;99.90;;;;;;5074738;28;20210;-64
2022/04/02 01:16:45;;;;;;;7.30;5.70;;;1.90;99.90;;;;;;5074573;28;20502;-64
2022/04/02 01:19:11;;;;;;;8.87;5.67;;;2.00;99.90;;;;;;5074779;28;20424;-63
2022/04/02 01:21:37;;;;;;;8.13;5.47;;;2.00;99.90;;;;;;5074609;28;20464;-62
2022/04/02 01:24:03;;;;;;;8.17;5.33;;;2.00;99.90;;;;;;5074728;28;20429;-63
2022/04/02 01:26:30;;;;;;;9.83;5.50;;;2.10;99.90;;;;;;5074313;28;20416;-63
2022/04/02 01:29:00;;;;;;;8.57;5.17;;;2.00;99.90;;;;;;5074508;28;20798;-63
2022/04/02 01:31:27;;;;;;;11.73;6.30;;;1.90;99.90;;;;;;5074537;28;20494;-63
2022/04/02 01:33:54;;;;;;;10.50;5.30;;;1.80;99.90;;;;;;5074433;28;20436;-63
2022/04/02 01:36:20;;;;;;;6.70;4.77;;;1.80;99.90;;;;;;5074475;28;20861;-63
2022/04/02 01:38:47;;;;;;;7.57;4.87;;;1.80;99.90;;;;;;5074190;28;20417;-63
2022/04/02 01:41:13;;;;;;;8.57;4.80;;;1.70;99.90;;;;;;5074397;28;20448;-63
2022/04/02 01:43:39;;;;;;;7.77;6.00;;;1.80;99.90;;;;;;5074120;28;20412;-63
2022/04/02 01:46:07;;;;;;;7.30;4.93;;;1.80;99.90;;;;;;5074338;28;20421;-63
2022/04/02 01:48:33;;;;;;;7.33;5.30;;;1.80;99.90;;;;;;5074137;28;20425;-63
2022/04/02 01:50:59;;;;;;;13.03;6.07;;;1.80;99.90;;;;;;5074161;28;20436;-63
2022/04/02 01:53:26;;;;;;;9.17;4.70;;;1.80;99.90;;;;;;5074163;28;20408;-63
2022/04/02 01:55:53;;;;;;;8.40;4.80;;;1.80;99.90;;;;;;5074080;28;20464;-63
2022/04/02 01:58:19;;;;;;;7.40;5.43;;;1.80;99.90;;;;;;5073862;28;20424;-63
2022/04/02 02:00:46;;;;;;;7.20;4.93;;;1.80;99.90;;;;;;5074304;28;20436;-63
2022/04/02 02:03:12;;;;;;;8.57;5.30;;;1.80;99.90;;;;;;5074112;28;20416;-64
2022/04/02 02:05:39;;;;;;;7.40;4.70;;;1.80;99.90;;;;;;5073146;28;20432;-64
2022/04/02 02:08:05;;;;;;;8.90;4.50;;;1.80;99.90;;;;;;5073786;28;20528;-64
2022/04/02 02:10:32;;;;;;;6.03;4.50;;;1.80;99.90;;;;;;5073912;28;20793;-63
2022/04/02 02:12:59;;;;;;;8.50;4.87;;;1.90;99.90;;;;;;5074232;28;20919;-63
2022/04/02 02:15:26;;;;;;;7.97;4.83;;;1.90;99.90;;;;;;5073785;28;20496;-64
2022/04/02 02:17:53;;;;;;;6.80;4.87;;;1.90;99.90;;;;;;5073885;28;20485;-63
2022/04/02 02:20:19;;;;;;;8.47;4.80;;;1.80;99.90;;;;;;5073819;28;20946;-63
2022/04/02 02:22:46;;;;;;;8.17;5.47;;;1.80;99.90;;;;;;5073894;28;20513;-63
2022/04/02 02:25:14;;;;;;;8.17;4.53;;;1.80;99.90;;;;;;5074159;28;20432;-63
2022/04/02 02:27:42;;;;;;;5.93;4.23;;;1.80;99.90;;;;;;5073814;28;20422;-63
2022/04/02 02:30:09;;;;;;;7.50;4.23;;;1.90;99.90;;;;;;5073884;28;20560;-63
2022/04/02 02:32:39;;;;;;;6.17;5.07;;;1.90;99.90;;;;;;5073828;28;20521;-63
2022/04/02 02:38:00;;;;;;;7.90;4.00;;;2.00;99.90;;;;;;5091909;28;20420;-63
2022/04/02 02:40:26;;;;;;;7.67;3.53;;;2.10;99.90;;;;;;5073554;28;20455;-63
2022/04/02 02:42:51;;;;;;;8.50;3.73;;;2.00;99.90;;;;;;5073541;28;20915;-63
2022/04/02 02:45:17;;;;;;;7.27;4.20;;;2.00;99.90;;;;;;5073649;28;20247;-63
2022/04/02 02:47:43;;;;;;;5.23;3.53;;;2.10;99.90;;;;;;5073388;28;20307;-63
2022/04/02 02:50:09;;;;;;;7.33;3.40;;;2.20;99.90;;;;;;5073707;28;20988;-63
2022/04/02 02:52:35;;;;;;;10.07;3.60;;;2.10;99.90;;;;;;5073499;28;20180;-63
2022/04/02 02:55:00;;;;;;;5.20;2.90;;;2.10;99.90;;;;;;5073457;28;20214;-62
2022/04/02 02:57:26;;;;;;;5.23;3.10;;;2.10;99.90;;;;;;5073184;28;20670;-63
2022/04/02 02:59:52;;;;;;;5.10;3.33;;;2.20;99.90;;;;;;5073470;28;20248;-63
2022/04/02 03:02:18;;;;;;;5.57;3.00;;;2.20;99.90;;;;;;5073378;28;20423;-62
2022/04/02 03:04:44;;;;;;;4.20;3.17;;;2.20;99.90;;;;;;5073312;28;20225;-62
2022/04/02 03:07:09;;;;;;;6.07;3.20;;;2.20;99.90;;;;;;5073219;28;20660;-63
2022/04/02 03:09:35;;;;;;;6.03;3.87;;;2.10;99.90;;;;;;5073386;28;20331;-63
2022/04/02 03:12:01;;;;;;;4.20;2.80;;;2.00;99.90;;;;;;5073322;28;20203;-62
2022/04/02 03:14:26;;;;;;;3.80;2.77;;;2.10;99.90;;;;;;5073127;28;20589;-62
2022/04/02 03:16:52;;;;;;;5.57;2.97;;;2.10;99.90;;;;;;5075449;28;20251;-63
2022/04/02 03:19:18;;;;;;;5.00;3.30;;;2.10;99.90;;;;;;5077008;28;20186;-62
2022/04/02 03:21:44;;;;;;;5.90;3.40;;;2.00;99.90;;;;;;5076970;28;20200;-63
2022/04/02 03:24:10;;;;;;;5.17;3.13;;;2.00;99.90;;;;;;5077342;28;20186;-63
2022/04/02 03:26:36;;;;;;;5.20;3.50;;;2.10;99.90;;;;;;5076727;28;20187;-63
2022/04/02 03:29:02;;;;;;;3.90;2.57;;;2.10;99.90;;;;;;5077113;28;20429;-63
2022/04/02 03:31:28;;;;;;;5.57;3.27;;;2.10;99.90;;;;;;5076835;28;20295;-63
2022/04/02 03:33:54;;;;;;;5.17;3.00;;;2.20;99.90;;;;;;5076723;28;20436;-63
2022/04/02 03:36:22;;;;;;;4.93;2.83;;;2.20;99.90;;;;;;5076690;28;20418;-63
2022/04/02 03:38:48;;;;;;;4.13;2.67;;;2.20;99.90;;;;;;5076638;28;20219;-63
2022/04/02 03:41:14;;;;;;;15.80;3.70;;;2.30;99.90;;;;;;5076595;28;20474;-63
2022/04/02 03:43:40;;;;;;;11.20;3.40;;;2.30;99.90;;;;;;5076710;28;20179;-63
2022/04/02 03:48:51;;;;;;;4.00;1.93;;;2.30;99.90;;;;;;5094987;28;20620;-63
2022/04/02 03:51:17;;;;;;;5.73;3.37;;;2.30;99.90;;;;;;5076368;28;20452;-63
2022/04/02 03:53:43;;;;;;;4.80;2.90;;;2.30;99.90;;;;;;5076327;28;20436;-63
2022/04/02 03:56:10;;;;;;;4.40;3.10;;;2.30;99.90;;;;;;5076294;28;20425;-62
2022/04/02 03:58:36;;;;;;;6.63;2.37;;;2.10;99.90;;;;;;5076299;28;20193;-62
2022/04/02 04:01:02;;;;;;;3.67;2.37;;;2.00;99.90;;;;;;5076035;28;20452;-63
2022/04/02 04:03:28;;;;;;;11.30;2.70;;;2.10;99.90;;;;;;5076262;28;20425;-62
2022/04/02 04:05:54;;;;;;;4.10;2.03;;;2.10;99.90;;;;;;5076243;28;20185;-63
2022/04/02 04:08:19;;;;;;;4.47;2.80;;;2.10;99.90;;;;;;5075951;28;20206;-62
2022/04/02 04:10:45;;;;;;;4.57;2.33;;;2.00;99.90;;;;;;5075966;28;20207;-63
2022/04/02 04:13:11;;;;;;;5.30;3.13;;;2.00;99.90;;;;;;5076158;28;20303;-63
2022/04/02 04:15:36;;;;;;;6.20;2.40;;;2.00;99.90;;;;;;5075883;28;20213;-62
2022/04/02 04:18:03;;;;;;;5.40;2.90;;;2.10;99.90;;;;;;5075778;28;20181;-62
2022/04/02 04:20:28;;;;;;;3.80;1.90;;;2.10;99.90;;;;;;5076416;28;20215;-63
2022/04/02 04:22:54;;;;;;;6.70;2.90;;;2.20;99.90;;;;;;5075879;28;20791;-63
2022/04/02 04:25:22;;;;;;;5.97;3.43;;;2.20;99.90;;;;;;5075935;28;20187;-63
2022/04/02 04:27:48;;;;;;;5.40;2.70;;;2.10;99.90;;;;;;5074790;28;20328;-62
2022/04/02 04:30:13;;;;;;;4.60;2.30;;;2.20;99.90;;;;;;5075772;28;20524;-63
2022/04/02 04:32:39;;;;;;;10.93;2.97;;;2.10;99.90;;;;;;5075740;28;20273;-62
2022/04/02 04:35:05;;;;;;;4.70;2.57;;;2.10;99.90;;;;;;5075567;28;20218;-63
2022/04/02 04:37:37;;;;;;;5.93;2.77;;;2.10;99.90;;;;;;5075439;28;20270;-63
2022/04/02 04:40:05;;;;;;;5.00;2.40;;;2.10;99.90;;;;;;5082769;23;21221;-87
2022/04/02 04:42:31;;;;;;;4.23;2.00;;;2.10;99.90;;;;;;5038133;28;20443;-86
2022/04/02 04:44:57;;;;;;;5.40;2.93;;;2.10;99.90;;;;;;5036743;28;20411;-85
2022/04/02 04:47:22;;;;;;;7.07;2.50;;;2.10;99.90;;;;;;5053954;28;20506;-86
2022/04/02 04:49:48;;;;;;;4.90;2.40;;;2.10;99.90;;;;;;5054582;28;20186;-86
2022/04/02 04:52:14;;;;;;;7.57;3.53;;;2.10;99.90;;;;;;5054724;28;20200;-87
2022/04/02 04:54:39;;;;;;;3.00;1.90;;;2.10;99.90;;;;;;5054231;28;20219;-86
2022/04/02 04:57:05;;;;;;;4.93;1.90;;;2.10;99.90;;;;;;5054551;28;20187;-86
2022/04/02 04:59:30;;;;;;;5.07;2.20;;;2.10;99.90;;;;;;5054597;28;20310;-85
2022/04/02 05:01:56;;;;;;;4.00;2.30;;;2.10;99.90;;;;;;5053956;28;20202;-86
2022/04/02 05:04:22;;;;;;;4.90;2.27;;;2.10;99.90;;;;;;5054068;28;20176;-86
2022/04/02 05:06:49;;;;;;;3.53;2.23;;;2.00;99.90;;;;;;5054107;28;20226;-86
2022/04/02 05:09:15;;;;;;;6.70;3.27;;;2.00;99.90;;;;;;5054178;28;20650;-86
2022/04/02 05:11:41;;;;;;;4.67;2.47;;;2.10;99.90;;;;;;5053691;28;20439;-86
2022/04/02 05:14:06;;;;;;;5.10;2.40;;;2.00;99.90;;;;;;5053726;28;20579;-86
2022/04/02 05:16:32;;;;;;;3.50;1.93;;;2.10;99.90;;;;;;5053185;28;20556;-86
2022/04/02 05:18:59;;;;;;;3.50;2.10;;;2.10;99.90;;;;;;5053425;28;20652;-86
2022/04/02 05:21:25;;;;;;;4.43;2.70;;;2.10;99.90;;;;;;5053662;28;20199;-86
2022/04/02 05:23:50;;;;;;;4.33;2.30;;;2.10;99.90;;;;;;5053570;28;20414;-86
2022/04/02 05:26:16;;;;;;;6.87;2.80;;;2.10;99.90;;;;;;5053302;28;20268;-85
2022/04/02 05:28:42;;;;;;;5.07;2.07;;;2.20;99.90;;;;;;5053265;28;20182;-86
2022/04/02 05:31:08;;;;;;;4.77;2.20;;;2.10;99.90;;;;;;5052945;28;20203;-87
2022/04/02 05:33:34;;;;;;;4.60;2.17;;;2.20;99.90;;;;;;5052581;28;20177;-86
2022/04/02 05:35:59;;;;;;;3.80;2.50;;;2.20;99.90;;;;;;5053948;28;21001;-87
2022/04/02 05:38:25;;;;;;;3.30;2.03;;;2.20;99.90;;;;;;5052360;28;20180;-86
2022/04/02 05:40:51;;;;;;;4.90;2.57;;;2.20;99.90;;;;;;5051908;28;20214;-87
2022/04/02 05:43:17;;;;;;;3.67;2.23;;;2.20;99.90;;;;;;5051902;28;20215;-88
2022/04/02 05:45:43;;;;;;;4.07;2.40;;;2.20;99.90;;;;;;5052681;28;20710;-86
2022/04/02 05:48:09;;;;;;;5.40;3.20;;;2.20;99.90;;;;;;5052159;28;20509;-86
2022/04/02 05:50:34;;;;;;;3.43;2.50;;;2.20;99.90;;;;;;5052800;28;20583;-86
2022/04/02 05:53:01;;;;;;;4.07;2.00;;;2.20;99.90;;;;;;5052250;28;20182;-85
2022/04/02 05:55:26;;;;;;;5.10;2.90;;;2.30;99.90;;;;;;5052569;28;20200;-86
2022/04/02 05:57:52;;;;;;;4.90;2.67;;;2.30;99.90;;;;;;5052253;28;20413;-85
2022/04/02 06:00:18;;;;;;;4.80;2.80;;;2.30;99.90;;;;;;5053326;28;20179;-86
2022/04/02 06:02:45;;;;;;;3.97;2.40;;;2.40;99.90;;;;;;5055260;28;20180;-86
2022/04/02 06:05:13;;;;;;;4.33;2.20;;;2.30;99.90;;;;;;5053817;28;20473;-86
2022/04/02 06:07:39;;;;;;;3.57;1.70;;;2.40;99.90;;;;;;5054083;28;20420;-86
2022/04/02 06:10:06;;;;;;;4.37;2.13;;;2.50;99.90;;;;;;5053920;28;20819;-86
2022/04/02 06:12:32;;;;;;;3.03;1.83;;;2.40;99.90;;;;;;5054275;28;20227;-86
2022/04/02 06:14:59;;;;;;;2.73;1.60;;;2.40;99.90;;;;;;5053692;28;20491;-86
2022/04/02 06:17:25;;;;;;;3.70;2.20;;;2.40;99.90;;;;;;5055643;28;20466;-86
2022/04/02 06:19:51;;;;;;;5.17;2.10;;;2.50;99.90;;;;;;5053686;28;20412;-86
2022/04/02 06:22:17;;;;;;;3.23;2.60;;;2.60;99.90;;;;;;5053179;28;20515;-85
2022/04/02 06:24:43;;;;;;;4.23;1.80;;;2.60;99.90;;;;;;5053805;28;20428;-87
2022/04/02 06:27:08;;;;;;;6.60;3.13;;;2.60;99.90;;;;;;5053616;28;20734;-86
2022/04/02 06:29:34;;;;;;;3.57;2.33;;;2.70;99.90;;;;;;5053653;28;20189;-86
2022/04/02 06:32:00;;;;;;;3.70;2.03;;;2.70;99.90;;;;;;5053456;28;20284;-86
2022/04/02 06:34:26;;;;;;;4.63;2.50;;;2.80;99.90;;;;;;5053713;28;20213;-86
2022/04/02 06:36:52;;;;;;;4.57;2.33;;;2.90;99.90;;;;;;5053871;28;20415;-86
2022/04/02 06:39:17;;;;;;;3.77;2.60;;;2.80;99.90;;;;;;5053917;28;20646;-86
2022/04/02 06:41:43;;;;;;;4.60;2.13;;;3.00;99.90;;;;;;5053355;28;20321;-86
2022/04/02 06:44:09;;;;;;;3.17;2.03;;;3.00;99.90;;;;;;5054072;28;20178;-86
2022/04/02 06:46:37;;;;;;;5.33;2.07;;;3.00;99.90;;;;;;5054239;28;20176;-86
2022/04/02 06:49:03;;;;;;;4.40;2.57;;;3.10;99.90;;;;;;5053113;28;20239;-86
2022/04/02 06:51:29;;;;;;;3.30;1.90;;;3.00;99.90;;;;;;5054598;28;20791;-87
2022/04/02 06:53:54;;;;;;;3.87;2.10;;;3.00;99.90;;;;;;5057130;28;20500;-86
2022/04/02 06:56:20;;;;;;;4.00;2.13;;;3.10;99.90;;;;;;5056823;28;20178;-87
2022/04/02 06:58:46;;;;;;;3.17;1.83;;;3.10;99.90;;;;;;5056539;28;20218;-87
2022/04/02 07:01:11;;;;;;;4.20;2.13;;;3.10;99.90;;;;;;5056426;28;20552;-87
2022/04/02 07:03:37;;;;;;;3.10;2.10;;;3.10;99.90;;;;;;5056849;28;20185;-86
2022/04/02 07:06:04;;;;;;;3.80;1.97;;;3.10;99.90;;;;;;5056707;28;20185;-86
2022/04/02 07:08:35;;;;;;;3.30;2.13;;;3.10;99.90;;;;;;5056527;28;20427;-87
2022/04/02 07:11:00;;;;;;;3.10;2.23;;;3.20;99.90;;;;;;5056688;28;20451;-86
2022/04/02 07:13:26;;;;;;;5.07;2.23;;;3.20;99.90;;;;;;5056491;28;20416;-86
2022/04/02 07:15:52;;;;;;;4.20;2.10;;;3.30;99.90;;;;;;5056155;28;20217;-85
2022/04/02 07:18:19;;;;;;;3.10;1.87;;;3.50;99.90;;;;;;5056132;28;20189;-85
2022/04/02 07:20:50;;;;;;;4.13;2.70;;;3.60;99.90;;;;;;5055811;28;20207;-85
2022/04/02 07:23:17;;;;;;;4.87;2.53;;;3.50;99.90;;;;;;5056096;28;20417;-85
2022/04/02 07:25:43;;;;;;;3.73;2.23;;;3.50;99.90;;;;;;5055813;28;20516;-86
2022/04/02 07:28:09;;;;;;;4.10;2.40;;;3.60;99.90;;;;;;5055548;28;20444;-85
2022/04/02 07:30:36;;;;;;;5.00;2.20;;;3.60;99.90;;;;;;5055979;28;20475;-84
2022/04/02 07:33:02;;;;;;;2.70;1.63;;;3.60;99.90;;;;;;5055508;28;20318;-86
2022/04/02 07:35:34;;;;;;;3.20;1.90;;;3.60;99.90;;;;;;5055158;28;20514;-86
2022/04/02 07:38:12;;;;;;;3.70;2.30;;;3.70;99.90;;;;;;5055159;28;20405;-86
2022/04/02 07:40:48;;;;;;;4.07;2.23;;;3.80;99.90;;;;;;5055428;28;20456;-86
2022/04/02 07:43:33;;;;;;;3.60;1.87;;;3.80;99.90;;;;;;5055049;28;20406;-86
2022/04/02 07:46:06;;;;;;;3.00;2.00;;;3.90;99.90;;;;;;5055050;28;20405;-85
2022/04/02 07:48:37;;;;;;;5.13;2.30;;;3.90;99.90;;;;;;5054820;28;20504;-86
2022/04/02 07:51:12;;;;;;;5.00;2.97;;;3.90;99.90;;;;;;5054921;28;20437;-85
2022/04/02 07:53:47;;;;;;;3.73;2.03;;;4.00;99.90;;;;;;5054553;28;20413;-86
2022/04/02 07:56:34;;;;;;;6.70;2.60;;;4.00;99.90;;;;;;5054732;28;20463;-85
2022/04/02 07:59:03;;;;;;;2.87;2.30;;;4.20;99.90;;;;;;5054078;28;20457;-84
2022/04/02 08:01:29;;;;;;;6.53;3.50;;;4.30;99.90;;;;;;5054326;28;20433;-85
2022/04/02 08:03:56;;;;;;;5.17;3.17;;;4.40;99.90;;;;;;5053108;28;20428;-86
2022/04/02 08:06:22;;;;;;;4.60;2.30;;;4.50;99.90;;;;;;5054566;28;20191;-85
2022/04/02 08:08:48;;;;;;;7.00;3.10;;;4.50;99.90;;;;;;5053773;28;20440;-85
2022/04/02 08:11:16;;;;;;;6.73;4.60;;;4.60;99.90;;;;;;5053798;28;20491;-84
2022/04/02 08:13:43;;;;;;;7.10;3.13;;;4.70;99.90;;;;;;5047937;28;20183;-85
2022/04/02 08:16:10;;;;;;;6.07;3.00;;;4.70;99.90;;;;;;5033221;28;20462;-85
2022/04/02 08:18:39;;;;;;;4.70;2.33;;;4.80;99.90;;;;;;5033275;28;20824;-85
2022/04/02 08:21:06;;;;;;;3.43;2.37;;;4.70;99.90;;;;;;5033384;28;20443;-86
2022/04/02 08:23:31;;;;;;;3.50;2.43;;;5.00;99.90;;;;;;5033427;28;20441;-86
2022/04/02 08:26:14;;;;;;;3.83;2.40;;;5.10;99.90;;;;;;5033314;28;20428;-85
2022/04/02 08:29:01;;;;;;;4.70;2.60;;;5.30;99.90;;;;;;5033336;28;20187;-85
2022/04/02 08:31:45;;;;;;;3.77;2.90;;;5.50;99.90;;;;;;5036510;28;20476;-85
2022/04/02 08:34:44;;;;;;;3.90;2.50;;;5.50;99.90;;;;;;5048841;28;20506;-86
2022/04/02 08:37:33;;;;;;;4.40;2.57;;;5.30;99.90;;;;;;5032389;28;20459;-86
2022/04/02 08:40:21;;;;;;;4.40;2.43;;;5.40;99.90;;;;;;5032064;28;20443;-86
2022/04/02 08:43:24;;;;;;;7.50;3.30;;;5.80;99.90;;;;;;5032826;28;20416;-85
2022/04/02 08:45:58;;;;;;;4.00;2.50;;;5.90;99.90;;;;;;5032875;28;20496;-86
2022/04/02 08:48:28;;;;;;;3.87;2.40;;;6.10;99.90;;;;;;5035261;28;20429;-86
2022/04/02 08:51:20;;;;;;;3.90;3.00;;;6.30;99.90;;;;;;5053667;28;20435;-87
2022/04/02 08:54:02;;;;;;;5.30;3.10;;;6.50;99.90;;;;;;5053438;28;20427;-88
2022/04/02 08:56:31;;;;;;;4.33;2.70;;;6.70;99.90;;;;;;5052570;28;20767;-87
2022/04/02 08:59:07;;;;;;;3.77;2.20;;;6.80;99.90;;;;;;5053193;28;20423;-90
2022/04/02 09:01:45;;;;;;;3.70;2.30;;;6.80;99.90;;;;;;5052222;28;20522;-90
2022/04/02 09:04:38;;;;;;;4.77;2.83;;;6.80;99.90;;;;;;5052235;28;20418;-87
2022/04/02 09:07:10;;;;;;;5.37;2.77;;;6.90;99.90;;;;;;5053720;28;20410;-88
2022/04/02 09:09:55;;;;;;;3.50;1.90;;;7.00;99.90;;;;;;5052255;28;20483;-88
2022/04/02 09:12:42;;;;;;;5.00;2.47;;;7.20;99.90;;;;;;5052046;28;20528;-89
2022/04/02 09:15:28;;;;;;;3.90;2.40;;;7.30;99.90;;;;;;5040480;28;20536;-87
2022/04/02 09:18:35;;;;;;;5.23;2.50;;;7.10;99.90;;;;;;5037353;28;21019;-86
2022/04/02 09:21:06;;;;;;;5.43;2.60;;;7.20;99.90;;;;;;5043637;28;20456;-87
2022/04/02 09:23:51;;;;;;;5.23;2.60;;;6.90;99.90;;;;;;5036568;28;20517;-88
2022/04/02 09:26:38;;;;;;;4.80;2.77;;;7.00;99.90;;;;;;5050420;28;20497;-89
2022/04/02 09:29:39;;;;;;;3.83;2.43;;;6.90;99.90;;;;;;5048961;28;20445;-86
2022/04/02 09:32:25;;;;;;;4.47;2.80;;;7.20;99.90;;;;;;4996468;28;20446;-86
2022/04/02 09:35:18;;;;;;;4.07;2.63;;;7.40;99.90;;;;;;5030190;28;20515;-87
2022/04/02 09:38:12;;;;;;;3.97;2.63;;;7.40;99.90;;;;;;5032068;28;20424;-86
2022/04/02 09:40:50;;;;;;;3.53;2.27;;;7.30;99.90;;;;;;5032603;28;20990;-86
2022/04/02 09:43:30;;;;;;;3.73;2.43;;;7.50;99.90;;;;;;5032156;28;20496;-86
2022/04/02 09:46:07;;;;;;;4.60;2.77;;;7.60;99.90;;;;;;5033974;28;20426;-86
2022/04/02 09:49:03;;;;;;;5.63;2.30;;;7.60;99.90;;;;;;5031678;28;20573;-86
2022/04/02 09:51:34;;;;;;;4.90;2.40;;;7.30;99.90;;;;;;5027678;28;20568;-86
2022/04/02 09:54:36;;;;;;;3.77;2.30;;;7.40;99.90;;;;;;5031626;28;20425;-86
2022/04/02 09:57:22;;;;;;;4.27;2.63;;;7.40;99.90;;;;;;5031590;28;20923;-86
2022/04/02 10:00:00;;;;;;;3.97;2.47;;;7.50;99.90;;;;;;5031891;28;20421;-85
2022/04/02 10:02:43;;;;;;;4.37;2.93;;;7.40;99.90;;;;;;5031724;28;20441;-86
2022/04/02 10:05:14;;;;;;;5.40;2.40;;;7.60;99.90;;;;;;5031446;28;20477;-86
2022/04/02 10:08:04;;;;;;;2.97;2.03;;;7.80;99.90;;;;;;5031386;28;20460;-86
2022/04/02 10:10:31;;;;;;;4.67;2.87;;;7.90;99.90;;;;;;5031171;28;20422;-86
2022/04/02 10:12:57;;;;;;;3.83;2.60;;;7.90;99.90;;;;;;5031524;28;20421;-86
2022/04/02 10:15:24;;;;;;;3.10;2.27;;;7.50;99.90;;;;;;5031230;28;20483;-86
2022/04/02 10:17:52;;;;;;;4.20;2.07;;;7.40;99.90;;;;;;5031425;28;20931;-86
2022/04/02 10:20:28;;;;;;;5.00;2.90;;;7.40;99.90;;;;;;5030989;28;20937;-86
2022/04/02 10:23:24;;;;;;;3.60;2.60;;;7.80;99.90;;;;;;5031155;28;20446;-87
2022/04/02 10:26:08;;;;;;;4.53;2.80;;;8.80;99.90;;;;;;5022116;28;20423;-86
2022/04/02 10:28:40;;;;;;;5.80;2.53;;;9.20;99.90;;;;;;5030964;28;20468;-86
2022/04/02 10:31:06;;;;;;;4.67;2.50;;;9.70;99.90;;;;;;5030864;28;20849;-86
2022/04/02 10:33:36;;;;;;;4.13;2.60;;;9.80;99.90;;;;;;5031200;28;20426;-87
2022/04/02 10:36:07;;;;;;;5.80;2.80;;;9.80;99.90;;;;;;5031416;28;20211;-86
2022/04/02 10:38:37;;;;;;;6.27;2.53;;;9.50;99.90;;;;;;5031508;28;20938;-86
2022/04/02 10:41:16;;;;;;;5.10;3.00;;;9.90;99.90;;;;;;5030932;28;20458;-86
2022/04/02 10:44:00;;;;;;;6.37;3.33;;;9.80;99.90;;;;;;5064498;23;20498;-67
2022/04/02 10:46:27;;;;;;;5.03;2.60;;;9.80;99.90;;;;;;5049535;28;20425;-67
2022/04/02 10:48:57;;;;;;;7.40;2.80;;;9.60;99.90;;;;;;5050546;28;20421;-66
2022/04/02 10:51:31;;;;;;;4.43;2.47;;;9.20;99.90;;;;;;5050040;28;20441;-65
2022/04/02 10:54:09;;;;;;;9.07;5.60;;;9.50;99.90;;;;;;5050308;28;20628;-65
2022/04/02 10:56:41;;;;;;;4.00;2.80;;;9.40;99.90;;;;;;5050055;28;20486;-65
2022/04/02 10:59:12;;;;;;;5.93;3.27;;;9.70;99.90;;;;;;5050149;28;20414;-66
2022/04/02 11:01:49;;;;;;;7.60;3.10;;;10.20;99.90;;;;;;5050126;28;20493;-66
2022/04/02 11:04:55;;;;;;;3.10;2.40;;;10.70;99.90;;;;;;5050151;28;20437;-65
2022/04/02 11:07:35;;;;;;;5.00;2.97;;;11.90;99.90;;;;;;5049984;28;20422;-66
2022/04/02 11:10:01;;;;;;;4.60;2.70;;;13.20;99.90;;;;;;5049986;28;20454;-65
2022/04/02 11:12:41;;;;;;;4.23;2.50;;;14.00;92.80;;;;;;5049985;28;20480;-66
2022/04/02 11:15:27;;;;;;;5.23;2.93;;;14.50;92.30;;;;;;5049898;28;20470;-67
2022/04/02 11:17:59;;;;;;;5.40;2.97;;;14.90;87.50;;;;;;5049945;28;20410;-66
2022/04/02 11:20:26;;;;;;;4.93;2.77;;;14.20;78.80;;;;;;5049889;28;20442;-67
2022/04/02 11:22:52;;;;;;;5.13;3.07;;;13.60;78.70;;;;;;5049859;28;20835;-66
2022/04/02 11:25:36;;;;;;;5.10;3.07;;;13.30;81.60;;;;;;5049833;28;20492;-66
2022/04/02 11:28:13;;;;;;;4.93;3.00;;;12.40;77.80;;;;;;5049843;28;20180;-66
2022/04/02 11:30:50;;;;;;;5.73;3.60;;;11.50;85.50;;;;;;5049906;28;20444;-65
2022/04/02 11:33:18;;;;;;;4.23;3.00;;;11.00;98.30;;;;;;5049796;28;20523;-66
2022/04/02 11:36:06;;;;;;;4.23;3.00;;;10.90;99.90;;;;;;5049658;28;20472;-65
2022/04/02 11:38:57;;;;;;;4.50;2.93;;;10.40;92.20;;;;;;5053013;28;20468;-66
2022/04/02 11:41:30;;;;;;;5.17;2.83;;;10.40;94.60;;;;;;5053239;28;21007;-65
2022/04/02 11:44:14;;;;;;;3.97;2.53;;;11.10;94.30;;;;;;5053391;28;20441;-66
2022/04/02 11:47:01;;;;;;;4.63;3.03;;;12.00;92.60;;;;;;5053179;28;20422;-66
2022/04/02 11:49:28;;;;;;;5.33;3.20;;;12.10;85.00;;;;;;5053337;28;20418;-66
2022/04/02 11:52:06;;;;;;;5.63;3.03;;;11.70;83.10;;;;;;5053007;28;20521;-66
2022/04/02 11:54:40;;;;;;;3.50;2.67;;;10.90;88.50;;;;;;5053162;28;20458;-66
2022/04/02 11:57:11;;;;;;;4.47;3.50;;;10.20;92.20;;;;;;5053015;28;20418;-65
2022/04/02 11:59:38;;;;;;;5.70;2.90;;;9.80;94.00;;;;;;5053032;28;20419;-66
2022/04/02 12:02:04;;;;;;;5.47;3.10;;;9.40;96.00;;;;;;5052935;28;20831;-65
2022/04/02 12:04:31;;;;;;;4.70;3.70;;;9.20;98.70;;;;;;5052903;28;20426;-66
2022/04/02 12:07:08;;;;;;;5.53;3.90;;;9.20;99.90;;;;;;5052780;28;20414;-66
2022/04/02 12:09:46;;;;;;;5.27;3.53;;;9.40;99.90;;;;;;5052961;28;20414;-65
2022/04/02 12:12:22;;;;;;;5.57;3.43;;;9.60;99.90;;;;;;5052728;28;20437;-65
2022/04/02 12:14:48;;;;;;;5.23;3.40;;;9.60;99.90;;;;;;5052655;28;20860;-63
2022/04/02 12:17:15;;;;;;;4.57;3.10;;;9.40;99.90;;;;;;5052597;28;20414;-66
2022/04/02 12:19:55;;;;;;;6.00;3.20;;;9.40;99.90;;;;;;5052748;28;20419;-66
2022/04/02 12:22:30;;;;;;;3.70;2.80;;;9.20;99.90;;;;;;5052594;28;20468;-67
2022/04/02 12:24:59;;;;;;;4.87;3.30;;;8.60;99.90;;;;;;5052642;28;20428;-65
2022/04/02 12:27:30;;;;;;;5.90;4.33;;;8.30;99.90;;;;;;5052191;28;20485;-65
2022/04/02 12:29:59;;;;;;;4.60;3.20;;;8.40;99.90;;;;;;5052451;28;20418;-66
2022/04/02 12:32:32;;;;;;;3.47;2.97;;;8.30;99.90;;;;;;5052413;28;20417;-65
2022/04/02 12:35:10;;;;;;;5.73;4.00;;;8.50;99.90;;;;;;5052460;28;20540;-65
2022/04/02 12:37:49;;;;;;;6.40;3.60;;;8.60;99.90;;;;;;5052316;28;20425;-65
2022/04/02 12:40:15;;;;;;;5.27;3.43;;;8.70;99.90;;;;;;5052347;28;20450;-65
2022/04/02 12:42:42;;;;;;;4.67;3.77;;;8.90;99.90;;;;;;5052227;28;20839;-65
2022/04/02 12:45:12;;;;;;;4.23;3.03;;;8.70;99.90;;;;;;5052266;28;20430;-66
2022/04/02 12:47:37;;;;;;;4.90;3.27;;;8.70;99.90;;;;;;5052093;28;20421;-67
2022/04/02 12:50:15;;;;;;;3.83;3.00;;;8.40;99.90;;;;;;5051423;28;20424;-65
2022/04/02 12:52:50;;;;;;;5.40;3.30;;;8.20;99.90;;;;;;5052112;28;20189;-65
2022/04/02 12:55:17;;;;;;;4.73;3.00;;;8.10;99.90;;;;;;5052016;28;21007;-65
2022/04/02 12:58:05;;;;;;;5.83;4.10;;;7.90;99.90;;;;;;5051807;28;20425;-66
2022/04/02 13:00:35;;;;;;;5.80;3.93;;;7.60;99.90;;;;;;5051746;28;20438;-66
2022/04/02 13:03:02;;;;;;;3.93;2.80;;;7.60;99.90;;;;;;5051992;28;20438;-66
2022/04/02 13:05:44;;;;;;;5.17;3.50;;;7.60;99.90;;;;;;5051903;28;20851;-66
2022/04/02 13:08:24;;;;;;;5.50;3.50;;;7.40;99.90;;;;;;5051764;28;20440;-65
2022/04/02 13:10:55;;;;;;;5.40;3.60;;;7.20;99.90;;;;;;5051647;28;20536;-65
2022/04/02 13:13:35;;;;;;;6.20;4.20;;;7.30;99.90;;;;;;5051713;28;20930;-65
2022/04/02 13:16:02;;;;;;;5.77;3.83;;;7.40;99.90;;;;;;5051492;28;20465;-66
2022/04/02 13:21:19;;;;;;;5.57;3.53;;;7.10;99.90;;;;;;5053005;28;20436;-66
2022/04/02 13:24:03;;;;;;;6.27;3.33;;;7.00;99.90;;;;;;5051489;28;20419;-66